sensor_id;sensor_type;location;lat;lon;timestamp;P1;durP1;ratioP1;P2;durP2;ratioP2
49488;SDS011;35382;51.484;11.476;2023-05-29T00:00:39;10.55;;;4.40;;
49488;SDS011;35382;51.484;11.476;2023-05-29T00:02:20;10.85;;;4.20;;
49488;SDS011;35382;51.484;11.476;2023-05-29T00:04:01;10.93;;;4.22;;
49488;SDS011;35382;51.484;11.476;2023-05-29T00:05:42;11.90;;;5.07;;
49488;SDS011;35382;51.484;11.476;2023-05-29T00:07:23;9.40;;;3.97;;
49488;SDS011;35382;51.484;11.476;2023-05-29T00:09:04;10.57;;;4.60;;
49488;SDS011;35382;51.484;11.476;2023-05-29T00:10:45;9.82;;;4.57;;
49488;SDS011;35382;51.484;11.476;2023-05-29T00:12:26;9.57;;;3.92;;
49488;SDS011;35382;51.484;11.476;2023-05-29T00:14:07;8.45;;;4.20;;
49488;SDS011;35382;51.484;11.476;2023-05-29T00:15:48;10.77;;;4.78;;
49488;SDS011;35382;51.484;11.476;2023-05-29T00:17:29;10.50;;;4.75;;
49488;SDS011;35382;51.484;11.476;2023-05-29T00:19:13;10.70;;;4.65;;
49488;SDS011;35382;51.484;11.476;2023-05-29T00:20:54;10.60;;;4.45;;
49488;SDS011;35382;51.484;11.476;2023-05-29T00:22:35;10.30;;;4.43;;
49488;SDS011;35382;51.484;11.476;2023-05-29T00:24:19;10.52;;;4.95;;
49488;SDS011;35382;51.484;11.476;2023-05-29T00:26:01;8.88;;;4.75;;
49488;SDS011;35382;51.484;11.476;2023-05-29T00:27:42;10.38;;;4.88;;
49488;SDS011;35382;51.484;11.476;2023-05-29T00:29:23;9.65;;;4.78;;
49488;SDS011;35382;51.484;11.476;2023-05-29T00:31:04;9.82;;;4.18;;
49488;SDS011;35382;51.484;11.476;2023-05-29T00:32:45;9.00;;;4.40;;
49488;SDS011;35382;51.484;11.476;2023-05-29T00:34:26;8.23;;;3.90;;
49488;SDS011;35382;51.484;11.476;2023-05-29T00:36:08;10.30;;;4.10;;
49488;SDS011;35382;51.484;11.476;2023-05-29T00:37:49;8.18;;;4.10;;
49488;SDS011;35382;51.484;11.476;2023-05-29T00:39:30;11.55;;;4.28;;
49488;SDS011;35382;51.484;11.476;2023-05-29T00:41:14;9.52;;;3.92;;
49488;SDS011;35382;51.484;11.476;2023-05-29T00:42:56;9.18;;;4.10;;
49488;SDS011;35382;51.484;11.476;2023-05-29T00:44:37;11.77;;;4.45;;
49488;SDS011;35382;51.484;11.476;2023-05-29T00:46:18;11.80;;;4.28;;
49488;SDS011;35382;51.484;11.476;2023-05-29T00:48:01;11.80;;;4.43;;
49488;SDS011;35382;51.484;11.476;2023-05-29T00:49:42;13.60;;;4.40;;
49488;SDS011;35382;51.484;11.476;2023-05-29T00:51:24;10.27;;;4.32;;
49488;SDS011;35382;51.484;11.476;2023-05-29T00:53:06;9.73;;;4.18;;
49488;SDS011;35382;51.484;11.476;2023-05-29T00:54:48;9.77;;;4.78;;
49488;SDS011;35382;51.484;11.476;2023-05-29T00:56:29;10.73;;;5.07;;
49488;SDS011;35382;51.484;11.476;2023-05-29T00:58:11;10.85;;;4.45;;
49488;SDS011;35382;51.484;11.476;2023-05-29T00:59:52;11.85;;;4.25;;
49488;SDS011;35382;51.484;11.476;2023-05-29T01:01:33;9.30;;;4.18;;
49488;SDS011;35382;51.484;11.476;2023-05-29T01:03:14;8.80;;;4.40;;
49488;SDS011;35382;51.484;11.476;2023-05-29T01:04:57;9.65;;;4.32;;
49488;SDS011;35382;51.484;11.476;2023-05-29T01:06:39;10.65;;;4.43;;
49488;SDS011;35382;51.484;11.476;2023-05-29T01:08:21;9.55;;;4.22;;
49488;SDS011;35382;51.484;11.476;2023-05-29T01:10:04;10.00;;;4.22;;
49488;SDS011;35382;51.484;11.476;2023-05-29T01:13:49;10.30;;;4.55;;
49488;SDS011;35382;51.484;11.476;2023-05-29T01:15:37;8.98;;;4.10;;
49488;SDS011;35382;51.484;11.476;2023-05-29T01:21:11;10.27;;;4.45;;
49488;SDS011;35382;51.484;11.476;2023-05-29T01:27:17;9.77;;;4.00;;
49488;SDS011;35382;51.484;11.476;2023-05-29T01:29:00;10.15;;;4.55;;
49488;SDS011;35382;51.484;11.476;2023-05-29T01:30:44;10.93;;;4.43;;
49488;SDS011;35382;51.484;11.476;2023-05-29T01:32:25;8.18;;;4.55;;
49488;SDS011;35382;51.484;11.476;2023-05-29T01:34:06;8.45;;;4.40;;
49488;SDS011;35382;51.484;11.476;2023-05-29T01:35:47;10.93;;;4.85;;
49488;SDS011;35382;51.484;11.476;2023-05-29T01:37:30;11.02;;;4.68;;
49488;SDS011;35382;51.484;11.476;2023-05-29T01:39:11;10.30;;;4.45;;
49488;SDS011;35382;51.484;11.476;2023-05-29T01:40:52;11.48;;;4.65;;
49488;SDS011;35382;51.484;11.476;2023-05-29T01:42:33;11.10;;;4.18;;
49488;SDS011;35382;51.484;11.476;2023-05-29T01:44:14;11.63;;;4.43;;
49488;SDS011;35382;51.484;11.476;2023-05-29T01:45:56;12.13;;;4.95;;
49488;SDS011;35382;51.484;11.476;2023-05-29T01:47:38;13.27;;;5.55;;
49488;SDS011;35382;51.484;11.476;2023-05-29T01:49:19;10.65;;;4.68;;
49488;SDS011;35382;51.484;11.476;2023-05-29T01:51:01;10.25;;;4.63;;
49488;SDS011;35382;51.484;11.476;2023-05-29T01:52:42;9.73;;;4.47;;
49488;SDS011;35382;51.484;11.476;2023-05-29T01:54:23;10.63;;;4.72;;
49488;SDS011;35382;51.484;11.476;2023-05-29T01:56:05;12.07;;;4.40;;
49488;SDS011;35382;51.484;11.476;2023-05-29T01:57:46;11.88;;;4.80;;
49488;SDS011;35382;51.484;11.476;2023-05-29T01:59:28;10.13;;;4.47;;
49488;SDS011;35382;51.484;11.476;2023-05-29T02:01:10;11.43;;;4.55;;
49488;SDS011;35382;51.484;11.476;2023-05-29T02:02:51;9.13;;;4.35;;
49488;SDS011;35382;51.484;11.476;2023-05-29T02:04:35;10.90;;;4.65;;
49488;SDS011;35382;51.484;11.476;2023-05-29T02:06:16;8.77;;;4.40;;
49488;SDS011;35382;51.484;11.476;2023-05-29T02:07:57;12.25;;;4.75;;
49488;SDS011;35382;51.484;11.476;2023-05-29T02:09:38;9.45;;;4.40;;
49488;SDS011;35382;51.484;11.476;2023-05-29T02:11:19;12.32;;;4.68;;
49488;SDS011;35382;51.484;11.476;2023-05-29T02:13:00;12.50;;;4.70;;
49488;SDS011;35382;51.484;11.476;2023-05-29T02:14:41;10.07;;;4.80;;
49488;SDS011;35382;51.484;11.476;2023-05-29T02:16:22;9.88;;;4.88;;
49488;SDS011;35382;51.484;11.476;2023-05-29T02:18:03;11.57;;;5.32;;
49488;SDS011;35382;51.484;11.476;2023-05-29T02:19:44;10.32;;;4.50;;
49488;SDS011;35382;51.484;11.476;2023-05-29T02:21:26;9.85;;;4.95;;
49488;SDS011;35382;51.484;11.476;2023-05-29T02:23:11;12.07;;;5.50;;
49488;SDS011;35382;51.484;11.476;2023-05-29T02:24:52;12.30;;;4.80;;
49488;SDS011;35382;51.484;11.476;2023-05-29T02:26:33;11.85;;;5.63;;
49488;SDS011;35382;51.484;11.476;2023-05-29T02:28:17;12.52;;;4.90;;
49488;SDS011;35382;51.484;11.476;2023-05-29T02:29:58;10.80;;;4.65;;
49488;SDS011;35382;51.484;11.476;2023-05-29T02:31:41;9.27;;;4.78;;
49488;SDS011;35382;51.484;11.476;2023-05-29T02:33:22;12.07;;;4.97;;
49488;SDS011;35382;51.484;11.476;2023-05-29T02:35:03;11.02;;;4.97;;
49488;SDS011;35382;51.484;11.476;2023-05-29T02:36:45;14.52;;;5.30;;
49488;SDS011;35382;51.484;11.476;2023-05-29T02:38:26;11.80;;;4.85;;
49488;SDS011;35382;51.484;11.476;2023-05-29T02:40:07;13.60;;;5.35;;
49488;SDS011;35382;51.484;11.476;2023-05-29T02:41:52;11.98;;;5.18;;
49488;SDS011;35382;51.484;11.476;2023-05-29T02:43:34;10.05;;;4.85;;
49488;SDS011;35382;51.484;11.476;2023-05-29T02:45:15;12.35;;;4.45;;
49488;SDS011;35382;51.484;11.476;2023-05-29T02:46:56;10.85;;;5.10;;
49488;SDS011;35382;51.484;11.476;2023-05-29T02:48:37;12.45;;;4.72;;
49488;SDS011;35382;51.484;11.476;2023-05-29T02:50:18;12.10;;;4.80;;
49488;SDS011;35382;51.484;11.476;2023-05-29T02:51:59;11.13;;;4.80;;
49488;SDS011;35382;51.484;11.476;2023-05-29T02:53:40;11.68;;;5.15;;
49488;SDS011;35382;51.484;11.476;2023-05-29T02:55:21;12.68;;;5.50;;
49488;SDS011;35382;51.484;11.476;2023-05-29T02:57:02;11.95;;;5.30;;
49488;SDS011;35382;51.484;11.476;2023-05-29T02:58:43;13.07;;;5.38;;
49488;SDS011;35382;51.484;11.476;2023-05-29T03:00:24;14.07;;;5.28;;
49488;SDS011;35382;51.484;11.476;2023-05-29T03:02:06;10.30;;;5.10;;
49488;SDS011;35382;51.484;11.476;2023-05-29T03:03:47;10.98;;;5.57;;
49488;SDS011;35382;51.484;11.476;2023-05-29T03:05:28;12.82;;;5.20;;
49488;SDS011;35382;51.484;11.476;2023-05-29T03:07:09;15.38;;;5.50;;
49488;SDS011;35382;51.484;11.476;2023-05-29T03:08:50;13.90;;;5.05;;
49488;SDS011;35382;51.484;11.476;2023-05-29T03:10:31;9.18;;;4.57;;
49488;SDS011;35382;51.484;11.476;2023-05-29T03:12:13;11.20;;;5.30;;
49488;SDS011;35382;51.484;11.476;2023-05-29T03:13:54;11.75;;;5.20;;
49488;SDS011;35382;51.484;11.476;2023-05-29T03:15:35;12.23;;;5.40;;
49488;SDS011;35382;51.484;11.476;2023-05-29T03:17:16;8.95;;;4.75;;
49488;SDS011;35382;51.484;11.476;2023-05-29T03:18:57;9.05;;;4.95;;
49488;SDS011;35382;51.484;11.476;2023-05-29T03:20:38;11.10;;;5.32;;
49488;SDS011;35382;51.484;11.476;2023-05-29T03:22:19;12.85;;;5.13;;
49488;SDS011;35382;51.484;11.476;2023-05-29T03:24:01;13.48;;;5.65;;
49488;SDS011;35382;51.484;11.476;2023-05-29T03:25:44;18.23;;;7.15;;
49488;SDS011;35382;51.484;11.476;2023-05-29T03:27:25;13.48;;;5.22;;
49488;SDS011;35382;51.484;11.476;2023-05-29T03:29:15;11.80;;;5.07;;
49488;SDS011;35382;51.484;11.476;2023-05-29T03:30:57;15.23;;;7.07;;
49488;SDS011;35382;51.484;11.476;2023-05-29T03:32:37;12.48;;;5.43;;
49488;SDS011;35382;51.484;11.476;2023-05-29T03:34:19;12.60;;;5.70;;
49488;SDS011;35382;51.484;11.476;2023-05-29T03:36:08;10.88;;;5.18;;
49488;SDS011;35382;51.484;11.476;2023-05-29T03:37:49;13.02;;;5.03;;
49488;SDS011;35382;51.484;11.476;2023-05-29T03:39:30;12.25;;;5.15;;
49488;SDS011;35382;51.484;11.476;2023-05-29T03:41:12;12.27;;;5.47;;
49488;SDS011;35382;51.484;11.476;2023-05-29T03:42:53;10.45;;;4.65;;
49488;SDS011;35382;51.484;11.476;2023-05-29T03:44:35;8.13;;;4.90;;
49488;SDS011;35382;51.484;11.476;2023-05-29T03:46:16;11.18;;;4.82;;
49488;SDS011;35382;51.484;11.476;2023-05-29T03:47:57;10.63;;;4.90;;
49488;SDS011;35382;51.484;11.476;2023-05-29T03:49:38;12.18;;;4.97;;
49488;SDS011;35382;51.484;11.476;2023-05-29T03:51:19;10.45;;;4.93;;
49488;SDS011;35382;51.484;11.476;2023-05-29T03:53:00;9.40;;;4.78;;
49488;SDS011;35382;51.484;11.476;2023-05-29T03:54:41;12.95;;;5.07;;
49488;SDS011;35382;51.484;11.476;2023-05-29T03:56:22;11.35;;;4.95;;
49488;SDS011;35382;51.484;11.476;2023-05-29T03:58:05;8.50;;;4.47;;
49488;SDS011;35382;51.484;11.476;2023-05-29T03:59:46;11.98;;;5.03;;
49488;SDS011;35382;51.484;11.476;2023-05-29T04:01:27;13.27;;;5.13;;
49488;SDS011;35382;51.484;11.476;2023-05-29T04:03:08;9.88;;;5.15;;
49488;SDS011;35382;51.484;11.476;2023-05-29T04:04:49;11.95;;;5.40;;
49488;SDS011;35382;51.484;11.476;2023-05-29T04:06:31;13.15;;;5.10;;
49488;SDS011;35382;51.484;11.476;2023-05-29T04:08:12;11.18;;;5.03;;
49488;SDS011;35382;51.484;11.476;2023-05-29T04:09:53;13.30;;;5.28;;
49488;SDS011;35382;51.484;11.476;2023-05-29T04:11:35;13.13;;;5.35;;
49488;SDS011;35382;51.484;11.476;2023-05-29T04:13:15;7.97;;;4.65;;
49488;SDS011;35382;51.484;11.476;2023-05-29T04:14:59;9.77;;;4.90;;
49488;SDS011;35382;51.484;11.476;2023-05-29T04:16:40;12.38;;;5.22;;
49488;SDS011;35382;51.484;11.476;2023-05-29T04:18:22;11.77;;;4.72;;
49488;SDS011;35382;51.484;11.476;2023-05-29T04:20:03;12.90;;;5.03;;
49488;SDS011;35382;51.484;11.476;2023-05-29T04:21:49;12.30;;;4.80;;
49488;SDS011;35382;51.484;11.476;2023-05-29T04:23:29;11.45;;;5.10;;
49488;SDS011;35382;51.484;11.476;2023-05-29T04:25:11;9.00;;;4.55;;
49488;SDS011;35382;51.484;11.476;2023-05-29T04:26:52;8.80;;;4.53;;
49488;SDS011;35382;51.484;11.476;2023-05-29T04:28:33;9.18;;;4.15;;
49488;SDS011;35382;51.484;11.476;2023-05-29T04:30:15;11.43;;;5.10;;
49488;SDS011;35382;51.484;11.476;2023-05-29T04:32:00;11.65;;;4.60;;
49488;SDS011;35382;51.484;11.476;2023-05-29T04:33:44;10.40;;;4.90;;
49488;SDS011;35382;51.484;11.476;2023-05-29T04:35:26;10.50;;;5.03;;
49488;SDS011;35382;51.484;11.476;2023-05-29T04:37:13;9.02;;;4.70;;
49488;SDS011;35382;51.484;11.476;2023-05-29T04:38:55;9.00;;;4.60;;
49488;SDS011;35382;51.484;11.476;2023-05-29T04:40:37;10.82;;;5.38;;
49488;SDS011;35382;51.484;11.476;2023-05-29T04:42:19;11.50;;;5.05;;
49488;SDS011;35382;51.484;11.476;2023-05-29T04:44:03;11.10;;;5.05;;
49488;SDS011;35382;51.484;11.476;2023-05-29T04:45:54;9.45;;;5.05;;
49488;SDS011;35382;51.484;11.476;2023-05-29T04:47:35;10.25;;;4.30;;
49488;SDS011;35382;51.484;11.476;2023-05-29T04:49:24;8.70;;;4.38;;
49488;SDS011;35382;51.484;11.476;2023-05-29T04:51:06;9.90;;;4.18;;
49488;SDS011;35382;51.484;11.476;2023-05-29T04:52:47;10.73;;;4.60;;
49488;SDS011;35382;51.484;11.476;2023-05-29T04:54:28;10.23;;;5.03;;
49488;SDS011;35382;51.484;11.476;2023-05-29T04:56:09;11.32;;;4.97;;
49488;SDS011;35382;51.484;11.476;2023-05-29T04:57:50;8.07;;;4.40;;
49488;SDS011;35382;51.484;11.476;2023-05-29T04:59:32;10.52;;;4.68;;
49488;SDS011;35382;51.484;11.476;2023-05-29T05:01:13;10.02;;;4.30;;
49488;SDS011;35382;51.484;11.476;2023-05-29T05:02:55;11.48;;;4.82;;
49488;SDS011;35382;51.484;11.476;2023-05-29T05:04:38;11.38;;;4.85;;
49488;SDS011;35382;51.484;11.476;2023-05-29T05:06:19;11.35;;;4.90;;
49488;SDS011;35382;51.484;11.476;2023-05-29T05:08:00;10.57;;;4.65;;
49488;SDS011;35382;51.484;11.476;2023-05-29T05:09:42;10.02;;;4.90;;
49488;SDS011;35382;51.484;11.476;2023-05-29T05:11:28;11.88;;;4.93;;
49488;SDS011;35382;51.484;11.476;2023-05-29T05:13:09;10.80;;;4.93;;
49488;SDS011;35382;51.484;11.476;2023-05-29T05:14:52;10.55;;;4.85;;
49488;SDS011;35382;51.484;11.476;2023-05-29T05:16:34;11.63;;;4.82;;
49488;SDS011;35382;51.484;11.476;2023-05-29T05:18:15;11.88;;;4.85;;
49488;SDS011;35382;51.484;11.476;2023-05-29T05:19:57;9.00;;;4.18;;
49488;SDS011;35382;51.484;11.476;2023-05-29T05:21:38;9.82;;;4.75;;
49488;SDS011;35382;51.484;11.476;2023-05-29T05:23:19;8.88;;;4.20;;
49488;SDS011;35382;51.484;11.476;2023-05-29T05:25:02;11.82;;;4.85;;
49488;SDS011;35382;51.484;11.476;2023-05-29T05:26:47;11.63;;;4.70;;
49488;SDS011;35382;51.484;11.476;2023-05-29T05:28:29;8.07;;;4.60;;
49488;SDS011;35382;51.484;11.476;2023-05-29T05:30:10;11.48;;;4.95;;
49488;SDS011;35382;51.484;11.476;2023-05-29T05:31:51;11.95;;;4.88;;
49488;SDS011;35382;51.484;11.476;2023-05-29T05:33:32;8.90;;;4.60;;
49488;SDS011;35382;51.484;11.476;2023-05-29T05:35:13;11.00;;;4.80;;
49488;SDS011;35382;51.484;11.476;2023-05-29T05:36:54;11.20;;;5.13;;
49488;SDS011;35382;51.484;11.476;2023-05-29T05:38:36;12.65;;;4.68;;
49488;SDS011;35382;51.484;11.476;2023-05-29T05:40:18;10.85;;;4.90;;
49488;SDS011;35382;51.484;11.476;2023-05-29T05:42:08;9.35;;;4.40;;
49488;SDS011;35382;51.484;11.476;2023-05-29T05:44:01;10.38;;;4.45;;
49488;SDS011;35382;51.484;11.476;2023-05-29T05:45:48;12.98;;;4.97;;
49488;SDS011;35382;51.484;11.476;2023-05-29T05:47:31;9.70;;;4.55;;
49488;SDS011;35382;51.484;11.476;2023-05-29T05:49:12;9.43;;;4.65;;
49488;SDS011;35382;51.484;11.476;2023-05-29T05:50:55;9.23;;;4.65;;
49488;SDS011;35382;51.484;11.476;2023-05-29T05:52:36;9.55;;;4.43;;
49488;SDS011;35382;51.484;11.476;2023-05-29T05:54:17;9.95;;;4.80;;
49488;SDS011;35382;51.484;11.476;2023-05-29T05:55:58;10.88;;;4.80;;
49488;SDS011;35382;51.484;11.476;2023-05-29T05:57:40;9.88;;;4.18;;
49488;SDS011;35382;51.484;11.476;2023-05-29T05:59:21;10.13;;;4.80;;
49488;SDS011;35382;51.484;11.476;2023-05-29T06:01:02;10.00;;;4.47;;
49488;SDS011;35382;51.484;11.476;2023-05-29T06:02:43;11.98;;;5.10;;
49488;SDS011;35382;51.484;11.476;2023-05-29T06:04:29;12.05;;;4.80;;
49488;SDS011;35382;51.484;11.476;2023-05-29T06:06:10;10.10;;;4.50;;
49488;SDS011;35382;51.484;11.476;2023-05-29T06:07:54;8.63;;;4.35;;
49488;SDS011;35382;51.484;11.476;2023-05-29T06:09:35;10.95;;;4.60;;
49488;SDS011;35382;51.484;11.476;2023-05-29T06:11:16;8.23;;;4.53;;
49488;SDS011;35382;51.484;11.476;2023-05-29T06:13:00;9.35;;;4.45;;
49488;SDS011;35382;51.484;11.476;2023-05-29T06:14:55;9.25;;;4.32;;
49488;SDS011;35382;51.484;11.476;2023-05-29T06:16:36;9.80;;;4.45;;
49488;SDS011;35382;51.484;11.476;2023-05-29T06:18:17;8.90;;;4.65;;
49488;SDS011;35382;51.484;11.476;2023-05-29T06:19:58;11.23;;;5.03;;
49488;SDS011;35382;51.484;11.476;2023-05-29T06:21:40;8.68;;;4.20;;
49488;SDS011;35382;51.484;11.476;2023-05-29T06:23:21;9.60;;;4.40;;
49488;SDS011;35382;51.484;11.476;2023-05-29T06:25:04;9.88;;;4.70;;
49488;SDS011;35382;51.484;11.476;2023-05-29T06:26:45;11.07;;;5.18;;
49488;SDS011;35382;51.484;11.476;2023-05-29T06:28:27;9.55;;;4.50;;
49488;SDS011;35382;51.484;11.476;2023-05-29T06:30:10;12.85;;;5.43;;
49488;SDS011;35382;51.484;11.476;2023-05-29T06:31:53;10.52;;;4.82;;
49488;SDS011;35382;51.484;11.476;2023-05-29T06:33:35;8.63;;;4.00;;
49488;SDS011;35382;51.484;11.476;2023-05-29T06:35:19;8.70;;;4.45;;
49488;SDS011;35382;51.484;11.476;2023-05-29T06:37:06;8.35;;;4.65;;
49488;SDS011;35382;51.484;11.476;2023-05-29T06:38:47;10.35;;;4.95;;
49488;SDS011;35382;51.484;11.476;2023-05-29T06:40:34;9.02;;;4.90;;
49488;SDS011;35382;51.484;11.476;2023-05-29T06:42:15;9.73;;;4.40;;
49488;SDS011;35382;51.484;11.476;2023-05-29T06:43:58;10.15;;;4.40;;
49488;SDS011;35382;51.484;11.476;2023-05-29T06:45:40;9.88;;;4.55;;
49488;SDS011;35382;51.484;11.476;2023-05-29T06:47:24;9.50;;;4.60;;
49488;SDS011;35382;51.484;11.476;2023-05-29T06:49:05;7.88;;;4.18;;
49488;SDS011;35382;51.484;11.476;2023-05-29T06:50:47;10.68;;;4.72;;
49488;SDS011;35382;51.484;11.476;2023-05-29T06:52:47;8.63;;;4.32;;
49488;SDS011;35382;51.484;11.476;2023-05-29T06:54:41;10.10;;;4.45;;
49488;SDS011;35382;51.484;11.476;2023-05-29T06:56:24;10.32;;;5.07;;
49488;SDS011;35382;51.484;11.476;2023-05-29T06:58:06;8.23;;;4.57;;
49488;SDS011;35382;51.484;11.476;2023-05-29T06:59:47;8.07;;;4.40;;
49488;SDS011;35382;51.484;11.476;2023-05-29T07:01:28;8.77;;;4.00;;
49488;SDS011;35382;51.484;11.476;2023-05-29T07:03:18;11.70;;;4.32;;
49488;SDS011;35382;51.484;11.476;2023-05-29T07:05:02;9.75;;;4.35;;
49488;SDS011;35382;51.484;11.476;2023-05-29T07:06:45;10.90;;;5.32;;
49488;SDS011;35382;51.484;11.476;2023-05-29T07:08:27;11.35;;;4.57;;
49488;SDS011;35382;51.484;11.476;2023-05-29T07:10:08;11.07;;;5.13;;
49488;SDS011;35382;51.484;11.476;2023-05-29T07:11:50;9.23;;;4.32;;
49488;SDS011;35382;51.484;11.476;2023-05-29T07:13:31;7.65;;;4.18;;
49488;SDS011;35382;51.484;11.476;2023-05-29T07:15:12;8.52;;;4.22;;
49488;SDS011;35382;51.484;11.476;2023-05-29T07:16:54;8.27;;;4.03;;
49488;SDS011;35382;51.484;11.476;2023-05-29T07:18:35;11.13;;;4.35;;
49488;SDS011;35382;51.484;11.476;2023-05-29T07:20:16;7.47;;;3.92;;
49488;SDS011;35382;51.484;11.476;2023-05-29T07:21:59;8.52;;;4.13;;
49488;SDS011;35382;51.484;11.476;2023-05-29T07:23:41;8.68;;;4.25;;
49488;SDS011;35382;51.484;11.476;2023-05-29T07:25:24;8.23;;;3.72;;
49488;SDS011;35382;51.484;11.476;2023-05-29T07:27:06;8.95;;;4.15;;
49488;SDS011;35382;51.484;11.476;2023-05-29T07:28:47;8.85;;;4.25;;
49488;SDS011;35382;51.484;11.476;2023-05-29T07:30:28;7.80;;;3.70;;
49488;SDS011;35382;51.484;11.476;2023-05-29T07:32:09;8.25;;;4.05;;
49488;SDS011;35382;51.484;11.476;2023-05-29T07:33:51;9.35;;;4.22;;
49488;SDS011;35382;51.484;11.476;2023-05-29T07:35:34;12.85;;;4.68;;
49488;SDS011;35382;51.484;11.476;2023-05-29T07:37:20;8.40;;;3.60;;
49488;SDS011;35382;51.484;11.476;2023-05-29T07:39:03;10.48;;;3.92;;
49488;SDS011;35382;51.484;11.476;2023-05-29T07:40:46;8.90;;;3.85;;
49488;SDS011;35382;51.484;11.476;2023-05-29T07:42:36;8.65;;;4.20;;
49488;SDS011;35382;51.484;11.476;2023-05-29T07:44:17;7.22;;;4.15;;
49488;SDS011;35382;51.484;11.476;2023-05-29T07:45:59;7.50;;;3.58;;
49488;SDS011;35382;51.484;11.476;2023-05-29T07:47:40;8.55;;;4.40;;
49488;SDS011;35382;51.484;11.476;2023-05-29T07:49:21;11.10;;;4.25;;
49488;SDS011;35382;51.484;11.476;2023-05-29T07:51:02;6.78;;;3.78;;
49488;SDS011;35382;51.484;11.476;2023-05-29T07:52:47;10.15;;;3.72;;
49488;SDS011;35382;51.484;11.476;2023-05-29T07:54:30;9.35;;;4.20;;
49488;SDS011;35382;51.484;11.476;2023-05-29T07:56:13;7.70;;;3.85;;
49488;SDS011;35382;51.484;11.476;2023-05-29T07:57:54;6.38;;;3.38;;
49488;SDS011;35382;51.484;11.476;2023-05-29T07:59:36;10.13;;;3.40;;
49488;SDS011;35382;51.484;11.476;2023-05-29T08:01:19;6.80;;;3.58;;
49488;SDS011;35382;51.484;11.476;2023-05-29T08:03:00;6.47;;;3.13;;
49488;SDS011;35382;51.484;11.476;2023-05-29T08:04:46;6.63;;;3.65;;
49488;SDS011;35382;51.484;11.476;2023-05-29T08:06:27;7.93;;;3.15;;
49488;SDS011;35382;51.484;11.476;2023-05-29T08:08:08;7.90;;;3.42;;
49488;SDS011;35382;51.484;11.476;2023-05-29T08:09:50;7.05;;;2.90;;
49488;SDS011;35382;51.484;11.476;2023-05-29T08:11:31;6.70;;;3.75;;
49488;SDS011;35382;51.484;11.476;2023-05-29T08:13:12;7.43;;;3.33;;
49488;SDS011;35382;51.484;11.476;2023-05-29T08:14:55;7.57;;;3.22;;
49488;SDS011;35382;51.484;11.476;2023-05-29T08:16:36;8.52;;;3.38;;
49488;SDS011;35382;51.484;11.476;2023-05-29T08:18:17;8.18;;;3.20;;
49488;SDS011;35382;51.484;11.476;2023-05-29T08:19:58;6.47;;;3.10;;
49488;SDS011;35382;51.484;11.476;2023-05-29T08:21:39;5.93;;;3.17;;
49488;SDS011;35382;51.484;11.476;2023-05-29T08:23:20;8.23;;;3.22;;
49488;SDS011;35382;51.484;11.476;2023-05-29T08:25:01;6.68;;;3.42;;
49488;SDS011;35382;51.484;11.476;2023-05-29T08:26:42;6.03;;;3.00;;
49488;SDS011;35382;51.484;11.476;2023-05-29T08:28:24;6.90;;;3.20;;
49488;SDS011;35382;51.484;11.476;2023-05-29T08:30:07;6.70;;;3.35;;
49488;SDS011;35382;51.484;11.476;2023-05-29T08:31:48;7.55;;;3.17;;
49488;SDS011;35382;51.484;11.476;2023-05-29T08:33:29;6.38;;;3.28;;
49488;SDS011;35382;51.484;11.476;2023-05-29T08:35:11;6.45;;;2.88;;
49488;SDS011;35382;51.484;11.476;2023-05-29T08:36:51;8.05;;;3.10;;
49488;SDS011;35382;51.484;11.476;2023-05-29T08:38:35;8.00;;;2.85;;
49488;SDS011;35382;51.484;11.476;2023-05-29T08:40:16;8.82;;;3.53;;
49488;SDS011;35382;51.484;11.476;2023-05-29T08:41:59;8.57;;;3.28;;
49488;SDS011;35382;51.484;11.476;2023-05-29T08:43:45;7.30;;;3.13;;
49488;SDS011;35382;51.484;11.476;2023-05-29T08:45:28;6.75;;;3.28;;
49488;SDS011;35382;51.484;11.476;2023-05-29T08:47:09;8.30;;;3.53;;
49488;SDS011;35382;51.484;11.476;2023-05-29T08:48:55;8.80;;;3.22;;
49488;SDS011;35382;51.484;11.476;2023-05-29T08:50:41;6.57;;;3.67;;
49488;SDS011;35382;51.484;11.476;2023-05-29T08:52:25;7.78;;;2.97;;
49488;SDS011;35382;51.484;11.476;2023-05-29T08:54:07;8.10;;;3.17;;
49488;SDS011;35382;51.484;11.476;2023-05-29T08:55:49;6.32;;;3.30;;
49488;SDS011;35382;51.484;11.476;2023-05-29T08:57:33;6.18;;;3.08;;
49488;SDS011;35382;51.484;11.476;2023-05-29T08:59:15;6.68;;;2.97;;
49488;SDS011;35382;51.484;11.476;2023-05-29T09:00:56;10.60;;;3.45;;
49488;SDS011;35382;51.484;11.476;2023-05-29T09:02:40;9.00;;;2.83;;
49488;SDS011;35382;51.484;11.476;2023-05-29T09:04:22;6.63;;;3.15;;
49488;SDS011;35382;51.484;11.476;2023-05-29T09:06:03;6.10;;;2.70;;
49488;SDS011;35382;51.484;11.476;2023-05-29T09:07:44;7.32;;;3.72;;
49488;SDS011;35382;51.484;11.476;2023-05-29T09:09:27;6.93;;;3.22;;
49488;SDS011;35382;51.484;11.476;2023-05-29T09:11:08;7.55;;;3.30;;
49488;SDS011;35382;51.484;11.476;2023-05-29T09:12:49;8.43;;;3.70;;
49488;SDS011;35382;51.484;11.476;2023-05-29T09:14:38;6.03;;;3.35;;
49488;SDS011;35382;51.484;11.476;2023-05-29T09:16:21;8.27;;;3.83;;
49488;SDS011;35382;51.484;11.476;2023-05-29T09:18:02;8.32;;;3.25;;
49488;SDS011;35382;51.484;11.476;2023-05-29T09:19:44;5.93;;;3.10;;
49488;SDS011;35382;51.484;11.476;2023-05-29T09:21:27;7.07;;;3.30;;
49488;SDS011;35382;51.484;11.476;2023-05-29T09:23:10;5.72;;;2.88;;
49488;SDS011;35382;51.484;11.476;2023-05-29T09:24:51;7.38;;;3.33;;
49488;SDS011;35382;51.484;11.476;2023-05-29T09:26:34;6.85;;;3.60;;
49488;SDS011;35382;51.484;11.476;2023-05-29T09:28:17;5.63;;;3.10;;
49488;SDS011;35382;51.484;11.476;2023-05-29T09:29:58;9.68;;;4.65;;
49488;SDS011;35382;51.484;11.476;2023-05-29T09:31:43;7.07;;;3.20;;
49488;SDS011;35382;51.484;11.476;2023-05-29T09:33:27;7.22;;;3.50;;
49488;SDS011;35382;51.484;11.476;2023-05-29T09:35:08;7.40;;;3.30;;
49488;SDS011;35382;51.484;11.476;2023-05-29T09:36:53;6.15;;;2.88;;
49488;SDS011;35382;51.484;11.476;2023-05-29T09:38:34;6.00;;;3.00;;
49488;SDS011;35382;51.484;11.476;2023-05-29T09:40:17;6.10;;;3.10;;
49488;SDS011;35382;51.484;11.476;2023-05-29T09:41:58;6.93;;;2.88;;
49488;SDS011;35382;51.484;11.476;2023-05-29T09:43:39;8.43;;;3.20;;
49488;SDS011;35382;51.484;11.476;2023-05-29T09:45:21;6.20;;;3.30;;
49488;SDS011;35382;51.484;11.476;2023-05-29T09:47:02;6.85;;;2.88;;
49488;SDS011;35382;51.484;11.476;2023-05-29T09:48:46;5.47;;;2.78;;
49488;SDS011;35382;51.484;11.476;2023-05-29T09:50:28;6.72;;;3.05;;
49488;SDS011;35382;51.484;11.476;2023-05-29T09:52:12;6.10;;;2.88;;
49488;SDS011;35382;51.484;11.476;2023-05-29T09:53:57;5.57;;;2.80;;
49488;SDS011;35382;51.484;11.476;2023-05-29T09:55:41;5.85;;;3.30;;
49488;SDS011;35382;51.484;11.476;2023-05-29T09:57:27;6.80;;;2.92;;
49488;SDS011;35382;51.484;11.476;2023-05-29T09:59:12;7.47;;;2.85;;
49488;SDS011;35382;51.484;11.476;2023-05-29T10:00:54;6.53;;;3.78;;
49488;SDS011;35382;51.484;11.476;2023-05-29T10:02:36;7.18;;;3.10;;
49488;SDS011;35382;51.484;11.476;2023-05-29T10:04:17;4.70;;;2.63;;
49488;SDS011;35382;51.484;11.476;2023-05-29T10:05:59;6.65;;;3.40;;
49488;SDS011;35382;51.484;11.476;2023-05-29T10:07:42;5.90;;;2.80;;
49488;SDS011;35382;51.484;11.476;2023-05-29T10:09:24;6.85;;;2.88;;
49488;SDS011;35382;51.484;11.476;2023-05-29T10:11:07;6.22;;;3.10;;
49488;SDS011;35382;51.484;11.476;2023-05-29T10:12:50;7.68;;;3.55;;